Time;durP1;ratioP1;P1;durP2;ratioP2;P2;SDS_P1;SDS_P2;PMS_P1;PMS_P2;Temp;Humidity;BMP_temperature;BMP_pressure;BME280_temperature;BME280_humidity;BME280_pressure;Samples;Min_cycle;Max_cycle;Signal;HPM_P1;HPM_P2
2023/09/26 00:02:20;;;;;;;0.90;0.90;;;;;;;;;;4132476;28;20062;-59
2023/09/26 00:04:22;;;;;;;1.27;1.27;;;;;;;;;;4132347;28;20050;-59
2023/09/26 00:06:24;;;;;;;1.42;1.00;;;;;;;;;;4132561;28;20637;-59
2023/09/26 00:08:26;;;;;;;1.00;1.00;;;;;;;;;;4132438;28;20045;-59
2023/09/26 00:10:28;;;;;;;1.30;1.30;;;;;;;;;;4132336;28;20039;-59
2023/09/26 00:12:29;;;;;;;1.70;1.00;;;;;;;;;;4132710;28;20046;-60
2023/09/26 00:14:31;;;;;;;1.03;1.03;;;;;;;;;;4144518;28;20126;-59
2023/09/26 00:16:33;;;;;;;1.48;0.90;;;;;;;;;;4148718;28;20084;-59
2023/09/26 00:18:34;;;;;;;3.10;1.52;;;;;;;;;;4148589;28;20045;-59
2023/09/26 00:20:38;;;;;;;1.00;1.00;;;;;;;;;;4143433;28;20046;-59
2023/09/26 00:22:40;;;;;;;3.28;1.10;;;;;;;;;;4132214;28;20297;-59
2023/09/26 00:24:42;;;;;;;1.00;1.00;;;;;;;;;;4132317;28;20125;-60
2023/09/26 00:26:43;;;;;;;2.85;1.52;;;;;;;;;;4132185;28;20049;-59
2023/09/26 00:28:45;;;;;;;2.90;1.10;;;;;;;;;;4132114;28;20046;-59
2023/09/26 00:30:47;;;;;;;1.48;1.10;;;;;;;;;;4132118;28;20109;-59
2023/09/26 00:32:48;;;;;;;0.90;0.90;;;;;;;;;;4132132;28;20044;-59
2023/09/26 00:34:50;;;;;;;1.00;1.00;;;;;;;;;;4132063;28;20041;-60
2023/09/26 00:36:52;;;;;;;1.35;1.00;;;;;;;;;;4132034;28;20042;-60
2023/09/26 00:38:54;;;;;;;2.38;1.17;;;;;;;;;;4131838;28;20048;-59
2023/09/26 00:40:55;;;;;;;1.17;1.17;;;;;;;;;;4132055;28;20042;-59
2023/09/26 00:43:00;;;;;;;1.53;1.00;;;;;;;;;;4132209;28;20074;-59
2023/09/26 00:45:02;;;;;;;1.85;0.95;;;;;;;;;;4131878;28;20395;-59
2023/09/26 00:47:04;;;;;;;1.38;1.38;;;;;;;;;;4131761;28;20097;-59
2023/09/26 00:49:06;;;;;;;1.33;1.00;;;;;;;;;;4131904;28;20109;-59
2023/09/26 00:51:08;;;;;;;2.60;1.27;;;;;;;;;;4132027;28;20118;-59
2023/09/26 00:53:09;;;;;;;1.15;1.00;;;;;;;;;;4131943;28;20044;-59
2023/09/26 00:55:13;;;;;;;1.10;1.05;;;;;;;;;;4131843;28;20042;-59
2023/09/26 00:57:14;;;;;;;1.10;1.10;;;;;;;;;;4131833;28;20038;-59
2023/09/26 00:59:16;;;;;;;1.00;1.00;;;;;;;;;;4131816;28;20049;-59
2023/09/26 01:01:24;;;;;;;1.63;1.23;;;;;;;;;;4156013;23;20333;-62
2023/09/26 01:03:26;;;;;;;1.80;1.02;;;;;;;;;;4147995;28;20046;-61
2023/09/26 01:05:28;;;;;;;1.55;1.00;;;;;;;;;;4137803;28;20053;-61
2023/09/26 01:07:31;;;;;;;1.00;1.00;;;;;;;;;;4145482;28;20072;-61
2023/09/26 01:09:32;;;;;;;0.90;0.90;;;;;;;;;;4147919;28;20062;-61
2023/09/26 01:11:34;;;;;;;1.10;1.10;;;;;;;;;;4148103;28;20034;-61
2023/09/26 01:13:36;;;;;;;0.90;0.90;;;;;;;;;;4147605;28;20029;-61
2023/09/26 01:15:39;;;;;;;1.35;1.27;;;;;;;;;;4163589;28;20044;-62
2023/09/26 01:17:40;;;;;;;1.00;1.00;;;;;;;;;;4152423;28;20440;-62
2023/09/26 01:19:42;;;;;;;1.90;0.95;;;;;;;;;;4141570;28;20049;-61
2023/09/26 01:21:44;;;;;;;1.00;0.90;;;;;;;;;;4136619;28;20042;-62
2023/09/26 01:23:46;;;;;;;1.00;1.00;;;;;;;;;;4147955;28;20038;-62
2023/09/26 01:25:47;;;;;;;0.93;0.93;;;;;;;;;;4147939;28;20046;-61
2023/09/26 01:27:49;;;;;;;1.20;1.10;;;;;;;;;;4148000;28;20100;-61
2023/09/26 01:29:52;;;;;;;1.00;1.00;;;;;;;;;;4147694;28;20124;-61
2023/09/26 01:31:54;;;;;;;2.25;0.90;;;;;;;;;;4147796;28;20092;-62
2023/09/26 01:33:56;;;;;;;1.10;1.10;;;;;;;;;;4147730;28;20049;-61
2023/09/26 01:35:57;;;;;;;1.10;1.00;;;;;;;;;;4147855;28;20042;-61
2023/09/26 01:37:59;;;;;;;2.20;1.10;;;;;;;;;;4147919;28;20038;-62
2023/09/26 01:40:00;;;;;;;0.90;0.90;;;;;;;;;;4147437;28;20456;-62
2023/09/26 01:42:03;;;;;;;1.10;1.00;;;;;;;;;;4147783;28;20128;-62
2023/09/26 01:44:06;;;;;;;1.00;1.00;;;;;;;;;;4147568;28;20042;-61
2023/09/26 01:46:09;;;;;;;1.00;1.00;;;;;;;;;;4147465;28;20288;-61
2023/09/26 01:48:12;;;;;;;1.15;1.00;;;;;;;;;;4147749;28;20048;-61
2023/09/26 01:50:15;;;;;;;1.65;1.10;;;;;;;;;;4147576;28;20034;-62
2023/09/26 01:52:16;;;;;;;;;;;;;;;;;;4148040;28;20042;-61
2023/09/26 01:54:18;;;;;;;1.10;1.00;;;;;;;;;;4147577;28;19953;-61
2023/09/26 01:56:20;;;;;;;0.80;0.80;;;;;;;;;;4147742;28;20072;-61
2023/09/26 01:58:21;;;;;;;0.90;0.90;;;;;;;;;;4147785;28;20588;-61
2023/09/26 02:00:23;;;;;;;0.90;0.90;;;;;;;;;;4147246;28;20379;-61
2023/09/26 02:02:25;;;;;;;1.02;0.90;;;;;;;;;;4147473;28;20033;-61
2023/09/26 02:04:26;;;;;;;0.90;0.90;;;;;;;;;;4146213;28;20599;-61
2023/09/26 02:06:28;;;;;;;1.25;0.90;;;;;;;;;;4147585;28;20787;-61
2023/09/26 02:08:30;;;;;;;1.00;1.00;;;;;;;;;;4147483;28;20042;-61
2023/09/26 02:10:31;;;;;;;1.00;1.00;;;;;;;;;;4147367;28;20093;-61
2023/09/26 02:12:34;;;;;;;2.38;1.00;;;;;;;;;;4147482;28;20280;-61
2023/09/26 02:14:35;;;;;;;;;;;;;;;;;;4160932;28;20046;-61
2023/09/26 02:16:37;;;;;;;1.00;1.00;;;;;;;;;;4160688;28;19929;-62
2023/09/26 02:18:39;;;;;;;1.10;1.10;;;;;;;;;;4147404;28;20425;-62
2023/09/26 02:20:41;;;;;;;1.73;1.05;;;;;;;;;;4147570;28;20081;-62
2023/09/26 02:22:44;;;;;;;1.23;1.23;;;;;;;;;;4147466;28;20401;-62
2023/09/26 02:24:51;;;;;;;1.00;1.00;;;;;;;;;;4147397;28;20046;-62
2023/09/26 02:26:55;;;;;;;1.15;1.05;;;;;;;;;;4148482;28;20054;-61
2023/09/26 02:28:56;;;;;;;1.00;1.00;;;;;;;;;;4150231;28;20074;-61
2023/09/26 02:30:58;;;;;;;2.05;1.00;;;;;;;;;;4150136;28;20054;-62
2023/09/26 02:33:00;;;;;;;1.00;1.00;;;;;;;;;;4150495;28;20096;-62
2023/09/26 02:35:02;;;;;;;1.13;0.90;;;;;;;;;;4150577;28;20038;-62
2023/09/26 02:37:04;;;;;;;1.00;1.00;;;;;;;;;;4150246;28;20092;-61
2023/09/26 02:39:06;;;;;;;0.90;0.90;;;;;;;;;;4149957;28;20041;-62
2023/09/26 02:41:07;;;;;;;1.00;1.00;;;;;;;;;;4150134;28;20293;-62
2023/09/26 02:43:09;;;;;;;3.92;0.90;;;;;;;;;;4148938;28;20042;-62
2023/09/26 02:45:14;;;;;;;0.90;0.90;;;;;;;;;;4150006;28;20046;-62
2023/09/26 02:47:16;;;;;;;1.63;1.00;;;;;;;;;;4149929;28;20034;-61
2023/09/26 02:49:17;;;;;;;1.10;1.10;;;;;;;;;;4149941;28;20100;-61
2023/09/26 02:51:19;;;;;;;1.00;1.00;;;;;;;;;;4150084;28;20037;-62
2023/09/26 02:53:21;;;;;;;1.00;1.00;;;;;;;;;;4149979;28;20312;-62
2023/09/26 02:55:22;;;;;;;2.13;1.10;;;;;;;;;;4149881;28;20045;-62
2023/09/26 02:57:24;;;;;;;0.90;0.90;;;;;;;;;;4148202;28;20289;-61
2023/09/26 02:59:26;;;;;;;1.40;1.40;;;;;;;;;;4144900;28;20074;-62
2023/09/26 03:01:27;;;;;;;1.02;1.02;;;;;;;;;;4149486;28;20383;-61
2023/09/26 03:03:29;;;;;;;0.90;0.90;;;;;;;;;;4142622;28;20133;-62
2023/09/26 03:05:31;;;;;;;1.00;1.00;;;;;;;;;;4148930;28;20041;-62
2023/09/26 03:07:32;;;;;;;2.00;1.67;;;;;;;;;;4149762;28;20041;-62
2023/09/26 03:09:34;;;;;;;1.00;1.00;;;;;;;;;;4149926;28;20324;-62
2023/09/26 03:11:36;;;;;;;1.20;1.00;;;;;;;;;;4149719;28;20046;-61
2023/09/26 03:13:38;;;;;;;1.25;1.25;;;;;;;;;;4153477;28;20052;-62
2023/09/26 03:15:39;;;;;;;1.00;1.00;;;;;;;;;;4165885;28;20037;-61
2023/09/26 03:17:41;;;;;;;1.00;1.00;;;;;;;;;;4154095;28;20100;-61
2023/09/26 03:19:44;;;;;;;1.40;1.30;;;;;;;;;;4149555;28;20077;-62
2023/09/26 03:21:46;;;;;;;2.15;1.00;;;;;;;;;;4149510;28;20053;-62
2023/09/26 03:23:48;;;;;;;1.00;1.00;;;;;;;;;;4149535;28;20511;-61
2023/09/26 03:25:50;;;;;;;1.20;1.10;;;;;;;;;;4149308;28;20501;-61
2023/09/26 03:28:01;;;;;;;1.67;1.15;;;;;;;;;;4149556;28;20113;-61
2023/09/26 03:30:02;;;;;;;1.00;1.00;;;;;;;;;;4149613;28;20049;-61
2023/09/26 03:32:04;;;;;;;1.95;1.20;;;;;;;;;;4149516;28;20046;-62
2023/09/26 03:34:06;;;;;;;1.00;1.00;;;;;;;;;;4149305;28;20069;-62
2023/09/26 03:36:08;;;;;;;1.10;1.10;;;;;;;;;;4148154;28;20038;-61
2023/09/26 03:38:09;;;;;;;1.53;1.30;;;;;;;;;;4148866;28;20501;-61
2023/09/26 03:40:11;;;;;;;1.35;1.30;;;;;;;;;;4149141;28;20308;-62
2023/09/26 03:42:12;;;;;;;1.20;1.20;;;;;;;;;;4148026;28;20038;-62
2023/09/26 03:44:14;;;;;;;1.83;1.10;;;;;;;;;;4149193;28;20045;-61
2023/09/26 03:46:16;;;;;;;1.53;1.17;;;;;;;;;;4149123;28;20559;-62
2023/09/26 03:48:17;;;;;;;2.33;2.22;;;;;;;;;;4149602;28;20293;-62
2023/09/26 03:50:19;;;;;;;1.48;1.10;;;;;;;;;;4149023;28;20050;-61
2023/09/26 03:52:21;;;;;;;1.10;1.10;;;;;;;;;;4149112;28;20038;-62
2023/09/26 03:54:24;;;;;;;1.58;1.10;;;;;;;;;;4149035;28;20333;-61
2023/09/26 03:56:26;;;;;;;1.60;1.20;;;;;;;;;;4148998;28;20064;-61
2023/09/26 03:58:28;;;;;;;1.03;1.00;;;;;;;;;;4148961;28;20133;-61
2023/09/26 04:00:29;;;;;;;1.00;1.00;;;;;;;;;;4148657;28;20288;-61
2023/09/26 04:02:31;;;;;;;1.10;1.10;;;;;;;;;;4149010;28;20042;-61
2023/09/26 04:04:33;;;;;;;1.30;1.30;;;;;;;;;;4148789;28;20042;-61
2023/09/26 04:06:34;;;;;;;1.30;1.17;;;;;;;;;;4148869;28;20045;-61
2023/09/26 04:08:36;;;;;;;1.35;1.20;;;;;;;;;;4147583;28;20454;-62
2023/09/26 04:10:39;;;;;;;1.17;1.10;;;;;;;;;;4154800;28;20045;-61
2023/09/26 04:12:40;;;;;;;2.45;1.20;;;;;;;;;;4163552;28;20092;-62
2023/09/26 04:14:42;;;;;;;1.10;1.10;;;;;;;;;;4148904;28;20042;-61
2023/09/26 04:16:44;;;;;;;1.30;1.20;;;;;;;;;;4148977;28;20042;-61
2023/09/26 04:18:45;;;;;;;1.10;1.00;;;;;;;;;;4148718;28;20505;-60
2023/09/26 04:20:47;;;;;;;1.13;1.00;;;;;;;;;;4148557;28;20103;-61
2023/09/26 04:22:49;;;;;;;1.50;1.27;;;;;;;;;;4147763;28;20045;-61
2023/09/26 04:24:51;;;;;;;1.10;1.10;;;;;;;;;;4148425;28;20052;-61
2023/09/26 04:26:52;;;;;;;1.20;1.20;;;;;;;;;;4149037;28;20049;-61
2023/09/26 04:28:54;;;;;;;1.23;1.20;;;;;;;;;;4148694;28;20292;-61
2023/09/26 04:30:56;;;;;;;1.20;1.20;;;;;;;;;;4148289;28;20326;-60
2023/09/26 04:32:57;;;;;;;5.97;2.00;;;;;;;;;;4148569;28;20042;-61
2023/09/26 04:34:59;;;;;;;1.55;1.55;;;;;;;;;;4142103;28;20589;-61
2023/09/26 04:37:01;;;;;;;1.50;1.40;;;;;;;;;;4148513;28;20081;-61
2023/09/26 04:39:03;;;;;;;1.60;1.60;;;;;;;;;;4148036;28;20772;-61
2023/09/26 04:41:04;;;;;;;1.53;1.43;;;;;;;;;;4148391;28;20050;-61
2023/09/26 04:43:06;;;;;;;4.28;1.70;;;;;;;;;;4148317;28;20042;-61
2023/09/26 04:45:08;;;;;;;5.88;1.58;;;;;;;;;;4148222;28;20050;-61
2023/09/26 04:47:09;;;;;;;1.95;1.42;;;;;;;;;;4147986;28;20042;-61
2023/09/26 04:49:11;;;;;;;1.48;1.38;;;;;;;;;;4147650;28;20064;-61
2023/09/26 04:51:14;;;;;;;2.10;1.20;;;;;;;;;;4148118;28;20069;-60
2023/09/26 04:53:15;;;;;;;1.58;1.15;;;;;;;;;;4147991;28;20285;-61
2023/09/26 04:55:17;;;;;;;1.30;1.20;;;;;;;;;;4148138;28;20478;-61
2023/09/26 04:57:19;;;;;;;1.30;1.30;;;;;;;;;;4148142;28;20116;-61
2023/09/26 04:59:20;;;;;;;2.00;1.60;;;;;;;;;;4148179;28;20045;-61
2023/09/26 05:01:24;;;;;;;1.70;1.60;;;;;;;;;;4147813;28;20736;-61
2023/09/26 05:03:27;;;;;;;1.20;1.20;;;;;;;;;;4148058;28;20493;-61
2023/09/26 05:05:28;;;;;;;2.35;1.30;;;;;;;;;;4148020;28;20050;-61
2023/09/26 05:07:30;;;;;;;1.90;1.43;;;;;;;;;;4142304;28;20046;-61
2023/09/26 05:09:32;;;;;;;2.15;1.10;;;;;;;;;;4145866;28;20331;-60
2023/09/26 05:11:34;;;;;;;3.30;1.20;;;;;;;;;;4147902;28;20049;-62
2023/09/26 05:13:35;;;;;;;4.30;1.40;;;;;;;;;;4148027;28;20034;-61
2023/09/26 05:15:38;;;;;;;1.20;1.10;;;;;;;;;;4147930;28;20347;-61
2023/09/26 05:17:47;;;;;;;1.50;1.50;;;;;;;;;;4147813;28;20319;-61
2023/09/26 05:19:49;;;;;;;1.60;1.20;;;;;;;;;;4147740;28;20046;-61
2023/09/26 05:21:51;;;;;;;1.23;1.23;;;;;;;;;;4148022;28;20038;-61
2023/09/26 05:23:52;;;;;;;1.33;1.30;;;;;;;;;;4146860;28;20054;-60
2023/09/26 05:25:54;;;;;;;1.30;1.20;;;;;;;;;;4147878;28;20557;-63
2023/09/26 05:27:56;;;;;;;1.98;1.70;;;;;;;;;;4147878;28;20038;-64
2023/09/26 05:29:58;;;;;;;1.20;1.00;;;;;;;;;;4147596;28;20052;-64
2023/09/26 05:32:00;;;;;;;4.57;1.10;;;;;;;;;;4147843;28;20049;-64
2023/09/26 05:34:03;;;;;;;4.05;1.65;;;;;;;;;;4148000;28;20037;-64
2023/09/26 05:36:04;;;;;;;1.30;1.20;;;;;;;;;;4147967;28;20093;-64
2023/09/26 05:38:06;;;;;;;1.42;1.42;;;;;;;;;;4147647;28;20046;-64
2023/09/26 05:40:09;;;;;;;1.10;1.10;;;;;;;;;;4147412;28;20060;-65
2023/09/26 05:42:11;;;;;;;2.47;1.13;;;;;;;;;;4141757;28;20045;-63
2023/09/26 05:44:12;;;;;;;1.67;1.00;;;;;;;;;;4147612;28;20049;-64
2023/09/26 05:46:14;;;;;;;1.30;1.30;;;;;;;;;;4147467;28;20046;-64
2023/09/26 05:48:16;;;;;;;1.40;1.20;;;;;;;;;;4147608;28;20049;-64
2023/09/26 05:50:18;;;;;;;1.10;1.10;;;;;;;;;;4147516;28;20479;-65
2023/09/26 05:52:22;;;;;;;2.63;1.17;;;;;;;;;;4147634;28;20046;-64
2023/09/26 05:54:24;;;;;;;1.00;1.00;;;;;;;;;;4147421;28;20688;-64
2023/09/26 05:56:32;;;;;;;1.20;1.10;;;;;;;;;;4147434;28;20506;-64
2023/09/26 05:58:34;;;;;;;1.37;1.10;;;;;;;;;;4147590;28;20045;-64
2023/09/26 06:00:36;;;;;;;1.10;1.10;;;;;;;;;;4147699;28;20069;-64
2023/09/26 06:02:38;;;;;;;1.30;1.20;;;;;;;;;;4150838;28;20424;-64
2023/09/26 06:04:41;;;;;;;1.20;1.10;;;;;;;;;;4150693;28;20506;-65
2023/09/26 06:06:43;;;;;;;3.10;0.90;;;;;;;;;;4150700;28;20073;-65
2023/09/26 06:08:46;;;;;;;1.30;1.17;;;;;;;;;;4150668;28;20073;-64
2023/09/26 06:10:53;;;;;;;1.00;1.00;;;;;;;;;;4149282;28;20057;-64
2023/09/26 06:12:55;;;;;;;2.10;1.10;;;;;;;;;;4150572;28;20401;-64
2023/09/26 06:14:57;;;;;;;1.85;1.75;;;;;;;;;;4166425;28;20505;-64
2023/09/26 06:16:59;;;;;;;1.10;1.10;;;;;;;;;;4167013;28;20033;-64
2023/09/26 06:19:01;;;;;;;1.42;1.25;;;;;;;;;;4166890;28;20052;-64
2023/09/26 06:21:03;;;;;;;1.73;1.20;;;;;;;;;;4167003;28;20046;-63
2023/09/26 06:23:05;;;;;;;1.45;1.17;;;;;;;;;;4166830;28;20053;-64
2023/09/26 06:25:07;;;;;;;5.00;1.10;;;;;;;;;;4166754;28;20092;-64
2023/09/26 06:27:09;;;;;;;3.20;1.20;;;;;;;;;;4165790;28;20136;-64
2023/09/26 06:29:11;;;;;;;1.90;1.20;;;;;;;;;;4166713;28;20049;-64
2023/09/26 06:31:12;;;;;;;2.10;1.10;;;;;;;;;;4166656;28;20346;-65
2023/09/26 06:33:14;;;;;;;2.20;1.65;;;;;;;;;;4166746;28;20272;-64
2023/09/26 06:35:16;;;;;;;1.33;1.30;;;;;;;;;;4166728;28;20044;-64
2023/09/26 06:37:18;;;;;;;2.10;1.30;;;;;;;;;;4166683;28;20049;-65
2023/09/26 06:39:19;;;;;;;1.27;1.20;;;;;;;;;;4166442;28;20290;-64
2023/09/26 06:41:21;;;;;;;1.40;1.17;;;;;;;;;;4166536;28;20049;-64
2023/09/26 06:43:23;;;;;;;1.58;1.23;;;;;;;;;;4165674;28;20408;-65
2023/09/26 06:45:24;;;;;;;1.13;1.10;;;;;;;;;;4150125;28;20050;-64
2023/09/26 06:47:26;;;;;;;1.03;1.03;;;;;;;;;;4149683;28;20057;-64
2023/09/26 06:49:28;;;;;;;1.00;1.00;;;;;;;;;;4150291;28;20368;-64
2023/09/26 06:51:30;;;;;;;0.93;0.93;;;;;;;;;;4150139;28;20044;-64
2023/09/26 06:53:32;;;;;;;1.20;1.10;;;;;;;;;;4149934;28;20387;-64
2023/09/26 06:55:39;;;;;;;2.00;1.20;;;;;;;;;;4149991;28;20045;-64
2023/09/26 06:57:40;;;;;;;1.25;1.20;;;;;;;;;;4150173;28;20040;-64
2023/09/26 06:59:46;;;;;;;1.63;1.00;;;;;;;;;;4141032;28;20116;-64
2023/09/26 07:01:48;;;;;;;1.58;1.15;;;;;;;;;;4137788;28;20057;-64
2023/09/26 07:03:50;;;;;;;1.58;1.48;;;;;;;;;;4149820;28;20058;-64
2023/09/26 07:05:52;;;;;;;6.32;1.25;;;;;;;;;;4150051;28;20070;-64
2023/09/26 07:07:54;;;;;;;0.90;0.90;;;;;;;;;;4148668;28;20077;-64
2023/09/26 07:09:56;;;;;;;1.00;1.00;;;;;;;;;;4149603;28;20069;-64
2023/09/26 07:11:57;;;;;;;1.58;1.35;;;;;;;;;;4149321;28;20046;-65
2023/09/26 07:13:59;;;;;;;1.23;1.10;;;;;;;;;;4157520;28;20041;-64
2023/09/26 07:16:05;;;;;;;1.80;1.42;;;;;;;;;;4164846;28;20045;-65
2023/09/26 07:18:09;;;;;;;1.20;1.13;;;;;;;;;;4165976;28;20041;-65
2023/09/26 07:20:15;;;;;;;0.95;0.90;;;;;;;;;;4165908;28;20033;-64
2023/09/26 07:22:17;;;;;;;1.00;1.00;;;;;;;;;;4166000;28;20041;-64
2023/09/26 07:24:18;;;;;;;1.25;1.25;;;;;;;;;;4165913;28;20049;-64
2023/09/26 07:26:20;;;;;;;1.33;0.90;;;;;;;;;;4166196;28;20145;-65
2023/09/26 07:28:22;;;;;;;0.90;0.90;;;;;;;;;;4165838;28;20288;-64
2023/09/26 07:30:24;;;;;;;1.00;1.00;;;;;;;;;;4165665;28;20052;-64
2023/09/26 07:32:25;;;;;;;2.40;1.48;;;;;;;;;;4165824;28;20433;-64
2023/09/26 07:34:27;;;;;;;2.35;1.30;;;;;;;;;;4165763;28;20060;-64
2023/09/26 07:36:29;;;;;;;1.13;1.00;;;;;;;;;;4165771;28;20037;-65
2023/09/26 07:38:31;;;;;;;1.33;0.97;;;;;;;;;;4165729;28;20132;-64
2023/09/26 07:40:33;;;;;;;1.10;1.10;;;;;;;;;;4157294;28;20112;-64
2023/09/26 07:42:36;;;;;;;2.15;1.00;;;;;;;;;;4149137;28;20128;-64
2023/09/26 07:44:37;;;;;;;0.90;0.90;;;;;;;;;;4149063;28;20050;-64
2023/09/26 07:46:39;;;;;;;1.15;1.15;;;;;;;;;;4149001;28;20033;-65
2023/09/26 07:48:42;;;;;;;4.25;1.88;;;;;;;;;;4149116;28;20042;-65
2023/09/26 07:50:43;;;;;;;2.25;0.98;;;;;;;;;;4148968;28;20052;-64
2023/09/26 07:52:45;;;;;;;1.08;1.08;;;;;;;;;;4149139;28;20037;-65
2023/09/26 07:54:46;;;;;;;0.90;0.90;;;;;;;;;;4149010;28;20410;-64
2023/09/26 07:56:48;;;;;;;1.77;0.95;;;;;;;;;;4133465;28;20042;-65
2023/09/26 07:58:50;;;;;;;2.45;1.58;;;;;;;;;;4143535;28;20069;-64
2023/09/26 08:00:52;;;;;;;1.63;1.40;;;;;;;;;;4148784;28;20128;-64
2023/09/26 08:02:54;;;;;;;1.52;1.40;;;;;;;;;;4149023;28;20438;-64
2023/09/26 08:04:56;;;;;;;2.55;2.45;;;;;;;;;;4149401;28;20038;-64
2023/09/26 08:06:58;;;;;;;4.40;2.58;;;;;;;;;;4149001;28;20053;-64
2023/09/26 08:08:59;;;;;;;1.63;1.50;;;;;;;;;;4148844;28;20046;-64
2023/09/26 08:11:10;;;;;;;1.20;1.10;;;;;;;;;;4148625;28;20053;-64
2023/09/26 08:13:11;;;;;;;1.58;1.35;;;;;;;;;;4150509;28;20038;-65
2023/09/26 08:15:13;;;;;;;1.08;1.08;;;;;;;;;;4165197;28;20040;-64
2023/09/26 08:17:15;;;;;;;1.45;1.45;;;;;;;;;;4165006;28;20080;-65
2023/09/26 08:19:17;;;;;;;1.75;1.00;;;;;;;;;;4165352;28;20041;-65
2023/09/26 08:21:19;;;;;;;0.90;0.90;;;;;;;;;;4165079;28;20072;-65
2023/09/26 08:23:21;;;;;;;3.05;1.10;;;;;;;;;;4164959;28;20509;-64
2023/09/26 08:25:23;;;;;;;1.42;0.90;;;;;;;;;;4163956;28;20045;-64
2023/09/26 08:27:25;;;;;;;1.42;0.82;;;;;;;;;;4164965;28;20045;-64
2023/09/26 08:29:27;;;;;;;3.30;0.90;;;;;;;;;;4164886;28;20387;-64
2023/09/26 08:31:30;;;;;;;;;;;;;;;;;;4165218;28;20045;-64
2023/09/26 08:33:31;;;;;;;1.15;1.15;;;;;;;;;;4164712;28;19932;-65
2023/09/26 08:35:33;;;;;;;0.85;0.85;;;;;;;;;;4164997;28;20037;-65
2023/09/26 08:37:35;;;;;;;0.95;0.95;;;;;;;;;;4150260;28;20045;-65
2023/09/26 08:39:37;;;;;;;;;;;;;;;;;;4148622;28;20046;-65
2023/09/26 08:41:38;;;;;;;0.88;0.80;;;;;;;;;;4148649;28;20012;-64
2023/09/26 08:43:40;;;;;;;0.90;0.90;;;;;;;;;;4148595;28;20053;-65
2023/09/26 08:45:42;;;;;;;3.03;0.90;;;;;;;;;;4148275;28;20046;-65
2023/09/26 08:47:43;;;;;;;2.97;0.80;;;;;;;;;;4148033;28;20046;-65
2023/09/26 08:49:45;;;;;;;;;;;;;;;;;;4148509;28;20378;-64
2023/09/26 08:51:47;;;;;;;1.98;1.00;;;;;;;;;;4153438;28;19960;-64
2023/09/26 08:53:49;;;;;;;2.22;0.90;;;;;;;;;;4163953;28;20048;-65
2023/09/26 08:55:51;;;;;;;0.90;0.90;;;;;;;;;;4148284;28;20034;-65
2023/09/26 08:57:54;;;;;;;1.55;0.80;;;;;;;;;;4148152;28;20515;-64
2023/09/26 08:59:59;;;;;;;0.80;0.80;;;;;;;;;;4148022;28;20571;-65
2023/09/26 09:02:01;;;;;;;0.80;0.80;;;;;;;;;;4147878;28;20080;-66
2023/09/26 09:04:03;;;;;;;;;;;;;;;;;;4148438;28;20045;-65
2023/09/26 09:06:04;;;;;;;0.80;0.80;;;;;;;;;;4147795;28;20289;-65
2023/09/26 09:08:20;;;;;;;2.08;0.80;;;;;;;;;;4147974;28;20073;-64
2023/09/26 09:10:22;;;;;;;0.90;0.90;;;;;;;;;;4148009;28;20046;-64
2023/09/26 09:12:25;;;;;;;1.38;0.98;;;;;;;;;;4147928;28;20059;-65
2023/09/26 09:14:31;;;;;;;0.80;0.80;;;;;;;;;;4160251;28;20046;-65
2023/09/26 09:16:33;;;;;;;0.70;0.70;;;;;;;;;;4164009;28;20037;-65
2023/09/26 09:18:35;;;;;;;0.90;0.90;;;;;;;;;;4164235;28;20088;-65
2023/09/26 09:20:37;;;;;;;;;;;;;;;;;;4164570;28;20048;-64
2023/09/26 09:22:48;;;;;;;0.90;0.90;;;;;;;;;;4164138;28;19971;-66
2023/09/26 09:24:54;;;;;;;1.55;0.90;;;;;;;;;;4164125;28;20088;-65
2023/09/26 09:26:56;;;;;;;0.75;0.75;;;;;;;;;;4164185;28;20053;-65
2023/09/26 09:29:14;;;;;;;1.42;0.80;;;;;;;;;;4164141;28;20072;-65
2023/09/26 09:31:16;;;;;;;2.10;0.80;;;;;;;;;;4164035;28;20512;-65
2023/09/26 09:33:18;;;;;;;1.00;1.00;;;;;;;;;;4153986;28;20088;-65
2023/09/26 09:35:19;;;;;;;0.80;0.80;;;;;;;;;;4147351;28;20505;-65
2023/09/26 09:37:21;;;;;;;1.20;0.82;;;;;;;;;;4147737;28;20048;-64
2023/09/26 09:39:23;;;;;;;1.05;1.00;;;;;;;;;;4147754;28;20172;-64
2023/09/26 09:41:25;;;;;;;;;;;;;;;;;;4148401;28;20552;-65
2023/09/26 09:43:27;;;;;;;1.48;0.80;;;;;;;;;;4147707;28;19972;-65
2023/09/26 09:45:31;;;;;;;0.80;0.80;;;;;;;;;;4147667;28;20117;-65
2023/09/26 09:47:36;;;;;;;0.85;0.80;;;;;;;;;;4148683;28;20057;-65
2023/09/26 09:49:41;;;;;;;0.80;0.80;;;;;;;;;;4163983;28;20077;-64
2023/09/26 09:51:45;;;;;;;0.80;0.80;;;;;;;;;;4149925;28;20070;-64
2023/09/26 09:53:53;;;;;;;1.55;0.80;;;;;;;;;;4147597;28;20070;-65
2023/09/26 09:55:57;;;;;;;0.80;0.80;;;;;;;;;;4147589;28;20116;-65
2023/09/26 09:58:02;;;;;;;1.25;0.90;;;;;;;;;;4147577;28;20045;-66
2023/09/26 10:00:05;;;;;;;2.38;0.93;;;;;;;;;;4143636;28;20502;-64
2023/09/26 10:02:10;;;;;;;0.80;0.80;;;;;;;;;;4143183;28;20132;-64
2023/09/26 10:04:13;;;;;;;0.75;0.75;;;;;;;;;;4144914;28;20066;-65
2023/09/26 10:06:15;;;;;;;1.65;0.70;;;;;;;;;;4144463;28;20054;-66
2023/09/26 10:08:18;;;;;;;0.70;0.70;;;;;;;;;;4140063;28;20038;-66
2023/09/26 10:10:20;;;;;;;0.80;0.80;;;;;;;;;;4139059;28;20039;-65
2023/09/26 10:12:23;;;;;;;0.90;0.70;;;;;;;;;;4139337;28;20038;-65
2023/09/26 10:14:27;;;;;;;1.15;0.93;;;;;;;;;;4137371;28;20069;-64
2023/09/26 10:16:30;;;;;;;0.70;0.70;;;;;;;;;;4144696;28;20038;-65
2023/09/26 10:18:41;;;;;;;0.95;0.90;;;;;;;;;;4144235;28;20049;-65
2023/09/26 10:20:46;;;;;;;1.15;0.82;;;;;;;;;;4145576;28;20398;-66
2023/09/26 10:23:09;;;;;;;1.00;1.00;;;;;;;;;;4132751;28;20058;-65
2023/09/26 10:25:16;;;;;;;0.90;0.90;;;;;;;;;;4145001;28;20103;-65
2023/09/26 10:27:32;;;;;;;1.30;0.80;;;;;;;;;;4146331;28;20567;-66
2023/09/26 10:29:54;;;;;;;0.95;0.90;;;;;;;;;;4147180;28;20053;-65
2023/09/26 10:32:04;;;;;;;1.00;1.00;;;;;;;;;;4145862;28;20065;-65
2023/09/26 10:34:06;;;;;;;1.63;0.70;;;;;;;;;;4146298;28;20494;-65
2023/09/26 10:36:09;;;;;;;0.80;0.80;;;;;;;;;;4142813;28;20041;-65
2023/09/26 10:38:16;;;;;;;0.95;0.80;;;;;;;;;;4144113;28;20464;-65
2023/09/26 10:40:18;;;;;;;1.75;0.80;;;;;;;;;;4141012;28;20117;-65
2023/09/26 10:42:23;;;;;;;0.77;0.77;;;;;;;;;;4145996;28;20128;-64
2023/09/26 10:44:27;;;;;;;0.73;0.73;;;;;;;;;;4153815;28;20045;-65
2023/09/26 10:46:30;;;;;;;0.80;0.80;;;;;;;;;;4158980;28;20050;-64
2023/09/26 10:48:31;;;;;;;2.50;1.42;;;;;;;;;;4147881;28;20058;-64
2023/09/26 10:50:33;;;;;;;1.10;0.80;;;;;;;;;;4147794;28;20088;-65
2023/09/26 10:52:35;;;;;;;0.90;0.90;;;;;;;;;;4148796;28;20034;-65
2023/09/26 10:54:39;;;;;;;;;;;;;;;;;;4146181;28;20077;-65
2023/09/26 10:56:49;;;;;;;3.55;0.82;;;;;;;;;;4150029;28;20009;-65
2023/09/26 10:58:52;;;;;;;0.80;0.80;;;;;;;;;;4148870;28;20041;-65
2023/09/26 11:00:57;;;;;;;1.00;0.90;;;;;;;;;;4143386;28;20615;-66
2023/09/26 11:02:59;;;;;;;0.85;0.85;;;;;;;;;;4149959;28;20375;-64
2023/09/26 11:05:21;;;;;;;2.10;0.90;;;;;;;;;;4149911;28;20056;-65
2023/09/26 11:07:23;;;;;;;1.45;0.80;;;;;;;;;;4149886;28;20069;-65
2023/09/26 11:09:25;;;;;;;0.85;0.85;;;;;;;;;;4149712;28;20054;-66
2023/09/26 11:11:27;;;;;;;;;;;;;;;;;;4150217;28;20069;-65
2023/09/26 11:13:29;;;;;;;0.80;0.80;;;;;;;;;;4153437;28;19920;-66
2023/09/26 11:15:32;;;;;;;0.80;0.80;;;;;;;;;;4165955;28;20124;-65
2023/09/26 11:17:35;;;;;;;0.80;0.80;;;;;;;;;;4166047;28;20505;-65
2023/09/26 11:19:36;;;;;;;0.90;0.70;;;;;;;;;;4164696;28;20046;-65
2023/09/26 11:21:38;;;;;;;1.23;0.80;;;;;;;;;;4163747;28;20045;-65
2023/09/26 11:23:40;;;;;;;0.88;0.82;;;;;;;;;;4146508;28;20684;-66
2023/09/26 11:25:50;;;;;;;1.90;1.35;;;;;;;;;;4144331;28;20521;-65
2023/09/26 11:27:52;;;;;;;0.90;0.90;;;;;;;;;;4133222;28;20533;-66
2023/09/26 11:29:54;;;;;;;0.82;0.82;;;;;;;;;;4133225;28;20511;-65
2023/09/26 11:31:56;;;;;;;2.35;0.80;;;;;;;;;;4133114;28;20097;-65
2023/09/26 11:33:58;;;;;;;0.90;0.90;;;;;;;;;;4133126;28;20479;-66
2023/09/26 11:36:01;;;;;;;0.90;0.90;;;;;;;;;;4133421;28;20089;-65
2023/09/26 11:38:03;;;;;;;0.80;0.80;;;;;;;;;;4115957;28;20567;-65
2023/09/26 11:40:11;;;;;;;0.80;0.80;;;;;;;;;;4135875;28;20057;-66
2023/09/26 11:42:17;;;;;;;0.90;0.90;;;;;;;;;;4141761;28;20050;-66
2023/09/26 11:44:20;;;;;;;0.80;0.80;;;;;;;;;;4148462;28;20409;-66
2023/09/26 11:46:21;;;;;;;1.60;0.90;;;;;;;;;;4148490;28;20048;-66
2023/09/26 11:48:23;;;;;;;2.78;1.00;;;;;;;;;;4149259;28;20395;-66
2023/09/26 11:50:25;;;;;;;0.98;0.98;;;;;;;;;;4149074;28;20041;-65
2023/09/26 11:52:27;;;;;;;1.50;1.08;;;;;;;;;;4148978;28;20475;-65
2023/09/26 11:54:28;;;;;;;1.63;0.90;;;;;;;;;;4143890;28;20117;-66
2023/09/26 11:56:30;;;;;;;1.98;0.80;;;;;;;;;;4144627;28;20445;-65
2023/09/26 11:58:32;;;;;;;0.90;0.90;;;;;;;;;;4148819;28;20434;-65
2023/09/26 12:00:33;;;;;;;1.15;0.93;;;;;;;;;;4147952;28;20053;-65
2023/09/26 12:02:35;;;;;;;2.00;1.10;;;;;;;;;;4148894;28;20050;-65
2023/09/26 12:04:38;;;;;;;2.28;0.90;;;;;;;;;;4148888;28;20545;-65
2023/09/26 12:06:40;;;;;;;0.90;0.90;;;;;;;;;;4148944;28;20033;-66
2023/09/26 12:08:43;;;;;;;1.65;1.10;;;;;;;;;;4148899;28;20096;-66
2023/09/26 12:10:45;;;;;;;1.52;0.80;;;;;;;;;;4148796;28;20502;-65
2023/09/26 12:12:47;;;;;;;1.60;1.50;;;;;;;;;;4148234;28;20483;-66
2023/09/26 12:14:48;;;;;;;0.90;0.90;;;;;;;;;;4160764;28;20034;-66
2023/09/26 12:16:51;;;;;;;3.75;0.90;;;;;;;;;;4146843;28;20046;-66
2023/09/26 12:18:54;;;;;;;0.88;0.88;;;;;;;;;;4142369;28;20403;-66